Time;durP1;ratioP1;P1;durP2;ratioP2;P2;SDS_P1;SDS_P2;PMS_P1;PMS_P2;Temp;Humidity;BMP_temperature;BMP_pressure;BME280_temperature;BME280_humidity;BME280_pressure;Samples;Min_cycle;Max_cycle;Signal;HPM_P1;HPM_P2
2023/07/05 00:01:01;;;;;;;17.30;12.03;;;12.60;92.60;;;;;;4996289;28;20260;-88
2023/07/05 00:03:27;;;;;;;19.53;12.60;;;12.70;92.70;;;;;;4996121;28;20205;-88
2023/07/05 00:05:53;;;;;;;25.20;12.03;;;12.70;92.70;;;;;;4996429;28;20550;-88
2023/07/05 00:08:18;;;;;;;23.07;12.90;;;12.80;92.80;;;;;;4996054;28;20186;-88
2023/07/05 00:10:44;;;;;;;14.67;11.30;;;12.80;92.80;;;;;;4996415;28;20174;-88
2023/07/05 00:13:09;;;;;;;20.13;11.40;;;12.80;92.90;;;;;;4996107;28;20680;-88
2023/07/05 00:15:35;;;;;;;18.73;11.43;;;12.80;92.90;;;;;;4996075;28;20243;-88
2023/07/05 00:18:01;;;;;;;18.23;12.33;;;12.80;93.00;;;;;;5014049;28;20551;-88
2023/07/05 00:20:26;;;;;;;15.20;12.90;;;12.80;93.00;;;;;;4997049;28;20181;-88
2023/07/05 00:22:52;;;;;;;18.33;12.00;;;12.80;93.10;;;;;;5013457;28;20190;-87
2023/07/05 00:25:18;;;;;;;14.13;11.33;;;12.90;93.10;;;;;;5014580;28;20170;-86
2023/07/05 00:27:44;;;;;;;24.30;11.97;;;12.80;93.10;;;;;;4996873;28;20184;-88
2023/07/05 00:30:10;;;;;;;16.40;11.70;;;12.90;93.10;;;;;;4996712;28;20177;-88
2023/07/05 00:32:36;;;;;;;20.40;12.17;;;12.90;93.20;;;;;;4997004;28;20204;-88
2023/07/05 00:35:01;;;;;;;14.60;11.43;;;12.90;93.20;;;;;;4996715;28;20273;-88
2023/07/05 00:37:27;;;;;;;15.67;11.57;;;12.90;93.10;;;;;;4996355;28;20178;-88
2023/07/05 00:39:53;;;;;;;20.83;13.17;;;12.90;93.20;;;;;;5002181;28;20209;-88
2023/07/05 00:42:19;;;;;;;16.17;11.50;;;12.90;93.20;;;;;;4996850;28;20169;-88
2023/07/05 00:45:11;;;;;;;19.63;10.90;;;13.00;93.20;;;;;;4997498;28;20664;-88
2023/07/05 00:47:39;;;;;;;14.83;11.10;;;13.00;93.20;;;;;;4968111;28;20220;-89
2023/07/05 00:50:13;;;;;;;16.43;11.80;;;13.00;93.20;;;;;;4996616;28;20269;-87
2023/07/05 00:52:39;;;;;;;16.87;11.40;;;13.00;93.10;;;;;;4995796;28;20605;-87
2023/07/05 00:55:06;;;;;;;18.83;11.27;;;13.00;93.10;;;;;;4995690;28;20201;-87
2023/07/05 00:57:36;;;;;;;21.13;11.13;;;13.00;93.20;;;;;;4995597;28;20244;-87
2023/07/05 01:00:06;;;;;;;19.33;11.87;;;13.10;93.10;;;;;;4995668;28;20684;-86
2023/07/05 01:02:32;;;;;;;16.93;10.93;;;13.10;93.10;;;;;;5012846;28;20180;-87
2023/07/05 01:05:00;;;;;;;17.60;11.37;;;13.10;93.10;;;;;;5013493;28;20173;-87
2023/07/05 01:07:25;;;;;;;18.73;10.63;;;13.10;93.10;;;;;;5013044;28;20210;-87
2023/07/05 01:09:51;;;;;;;16.50;10.63;;;13.10;93.20;;;;;;5015932;28;20201;-86
2023/07/05 01:12:43;;;;;;;19.57;11.30;;;13.10;93.10;;;;;;4999230;28;20185;-86
2023/07/05 01:15:27;;;;;;;17.97;11.23;;;13.10;93.10;;;;;;5016770;28;20172;-86
2023/07/05 01:18:04;;;;;;;14.17;11.33;;;13.20;93.20;;;;;;4999221;28;20172;-86
2023/07/05 01:20:42;;;;;;;14.07;11.90;;;13.20;93.10;;;;;;5016520;28;20656;-87
2023/07/05 01:23:29;;;;;;;17.50;11.40;;;13.20;93.10;;;;;;5016463;28;20712;-86
2023/07/05 01:26:17;;;;;;;14.77;11.37;;;13.20;93.10;;;;;;4998924;28;20168;-86
2023/07/05 01:29:22;;;;;;;19.37;11.90;;;13.20;93.10;;;;;;5016427;28;20177;-86
2023/07/05 01:32:07;;;;;;;14.97;11.63;;;13.20;93.10;;;;;;5016331;28;20245;-86
2023/07/05 01:34:43;;;;;;;16.80;11.50;;;13.20;93.10;;;;;;5016137;28;20280;-86
2023/07/05 01:37:23;;;;;;;16.50;12.07;;;13.20;93.20;;;;;;5016447;28;20169;-86
2023/07/05 01:39:48;;;;;;;16.73;11.90;;;13.20;93.20;;;;;;5016321;28;20193;-86
2023/07/05 01:42:14;;;;;;;18.03;11.83;;;13.30;93.20;;;;;;5016268;28;20166;-86
2023/07/05 01:44:40;;;;;;;17.60;11.40;;;13.30;93.20;;;;;;4998562;28;20688;-86
2023/07/05 01:47:15;;;;;;;13.90;11.40;;;13.30;93.20;;;;;;4998592;28;20177;-86
2023/07/05 01:50:07;;;;;;;17.77;11.67;;;13.30;93.20;;;;;;4998457;28;20169;-86
2023/07/05 01:52:41;;;;;;;14.00;11.63;;;13.30;93.20;;;;;;5015927;28;20637;-86
2023/07/05 01:55:14;;;;;;;17.77;11.53;;;13.30;93.20;;;;;;5016662;28;20251;-86
2023/07/05 01:57:51;;;;;;;17.33;11.93;;;13.30;93.20;;;;;;5016186;28;20546;-86
2023/07/05 02:00:19;;;;;;;19.50;12.20;;;13.30;93.20;;;;;;4998520;28;20161;-86
2023/07/05 02:02:51;;;;;;;21.60;11.97;;;13.30;93.20;;;;;;4998112;28;20181;-86
2023/07/05 02:05:17;;;;;;;17.20;12.43;;;13.30;93.20;;;;;;4998325;28;20657;-86
2023/07/05 02:07:44;;;;;;;14.53;11.83;;;13.20;93.20;;;;;;4998159;28;20197;-86
2023/07/05 02:10:11;;;;;;;19.43;12.50;;;13.20;93.20;;;;;;5015679;28;20188;-86
2023/07/05 02:12:36;;;;;;;17.53;11.83;;;13.20;93.20;;;;;;4997944;28;20173;-86
2023/07/05 02:15:02;;;;;;;19.60;17.90;;;13.20;93.20;;;;;;5015887;28;20184;-86
2023/07/05 02:17:28;;;;;;;20.73;18.50;;;13.20;93.20;;;;;;5015630;28;20184;-86
2023/07/05 02:19:53;;;;;;;19.70;17.80;;;13.20;93.20;;;;;;5014682;28;20627;-86
2023/07/05 02:22:19;;;;;;;22.70;18.80;;;13.10;93.20;;;;;;5015515;28;20170;-86
2023/07/05 02:24:46;;;;;;;21.23;19.07;;;13.20;93.30;;;;;;5015529;28;20193;-86
2023/07/05 02:27:12;;;;;;;18.30;14.93;;;13.20;93.30;;;;;;5015322;28;20176;-86
2023/07/05 02:29:37;;;;;;;18.63;11.77;;;13.20;93.30;;;;;;5015443;28;20182;-86
2023/07/05 02:32:03;;;;;;;19.60;11.93;;;13.20;93.30;;;;;;4997543;28;20181;-86
2023/07/05 02:34:29;;;;;;;24.00;12.30;;;13.20;93.30;;;;;;4997863;28;20240;-86
2023/07/05 02:36:54;;;;;;;20.07;12.40;;;13.20;93.30;;;;;;4997563;28;20209;-86
2023/07/05 02:39:20;;;;;;;15.83;12.47;;;13.20;93.30;;;;;;4997471;28;20213;-86
2023/07/05 02:41:45;;;;;;;26.77;12.53;;;13.20;93.30;;;;;;5015053;28;20614;-86
2023/07/05 02:44:11;;;;;;;19.40;12.07;;;13.30;93.30;;;;;;5015067;28;20689;-86
2023/07/05 02:46:37;;;;;;;23.47;12.17;;;13.30;93.30;;;;;;4997546;28;20188;-86
2023/07/05 02:49:03;;;;;;;22.57;13.00;;;13.30;93.30;;;;;;4997543;28;20181;-86
2023/07/05 02:51:32;;;;;;;15.00;12.33;;;13.30;93.30;;;;;;4997363;28;20181;-86
2023/07/05 02:53:57;;;;;;;20.00;12.23;;;13.30;93.20;;;;;;4996618;28;20300;-86
2023/07/05 02:56:24;;;;;;;17.60;11.77;;;13.30;93.10;;;;;;4996370;28;20293;-86
2023/07/05 02:58:49;;;;;;;18.47;12.80;;;13.30;93.10;;;;;;5013851;28;20720;-86
2023/07/05 03:01:15;;;;;;;17.57;11.83;;;13.30;93.00;;;;;;4996487;28;20268;-85
2023/07/05 03:03:40;;;;;;;16.90;11.23;;;13.30;92.80;;;;;;4996756;28;20205;-86
2023/07/05 03:06:06;;;;;;;17.27;12.20;;;13.40;92.60;;;;;;4996937;28;20629;-86
2023/07/05 03:08:31;;;;;;;23.63;12.23;;;13.50;92.50;;;;;;4996321;28;20560;-86
2023/07/05 03:11:00;;;;;;;17.77;12.43;;;13.50;92.40;;;;;;4996188;28;20660;-86
2023/07/05 03:13:30;;;;;;;19.37;12.30;;;13.50;92.30;;;;;;5013510;28;20691;-85
2023/07/05 03:15:57;;;;;;;18.90;12.70;;;13.60;92.20;;;;;;4996007;28;20166;-86
2023/07/05 03:18:23;;;;;;;18.60;12.37;;;13.60;92.10;;;;;;4995964;28;20201;-86
2023/07/05 03:20:49;;;;;;;18.63;12.63;;;13.60;92.00;;;;;;5013600;28;20236;-86
2023/07/05 03:23:15;;;;;;;16.97;11.77;;;13.70;92.00;;;;;;5013373;28;20580;-86
2023/07/05 03:25:41;;;;;;;15.40;12.60;;;13.70;91.90;;;;;;5013308;28;20173;-86
2023/07/05 03:28:07;;;;;;;17.83;12.90;;;13.70;91.80;;;;;;4995956;28;20684;-86
2023/07/05 03:30:34;;;;;;;16.03;12.83;;;13.70;91.80;;;;;;5013370;28;20176;-86
2023/07/05 03:33:00;;;;;;;21.97;13.03;;;13.70;91.80;;;;;;5012839;28;20565;-86
2023/07/05 03:35:26;;;;;;;22.87;13.23;;;13.70;91.80;;;;;;4995693;28;20188;-86
2023/07/05 03:37:51;;;;;;;22.33;12.83;;;13.70;91.90;;;;;;5013691;28;20665;-86
2023/07/05 03:40:17;;;;;;;17.40;12.77;;;13.70;92.00;;;;;;5013570;28;20646;-86
2023/07/05 03:42:42;;;;;;;20.40;13.47;;;13.70;91.90;;;;;;5013450;28;20173;-86
2023/07/05 03:45:08;;;;;;;17.97;12.17;;;13.80;91.90;;;;;;5013448;28;20259;-88
2023/07/05 03:47:34;;;;;;;19.07;12.80;;;13.80;91.90;;;;;;5013050;28;20173;-86
2023/07/05 03:50:00;;;;;;;18.07;12.73;;;13.80;92.00;;;;;;5013188;28;20268;-86
2023/07/05 03:52:26;;;;;;;19.67;13.07;;;13.80;91.90;;;;;;5013420;28;20247;-86
2023/07/05 03:55:35;;;;;;;20.93;14.13;;;13.80;91.90;;;;;;5070736;28;20542;-87
2023/07/05 03:58:00;;;;;;;21.43;14.43;;;13.80;91.90;;;;;;5069336;28;20183;-88
2023/07/05 04:00:26;;;;;;;22.90;13.23;;;13.80;91.90;;;;;;5069165;28;20175;-87
2023/07/05 04:02:51;;;;;;;21.20;13.10;;;13.80;91.90;;;;;;5069176;28;20191;-88
2023/07/05 04:05:17;;;;;;;18.57;13.93;;;13.80;91.90;;;;;;5070282;28;20180;-88
2023/07/05 04:07:42;;;;;;;19.23;13.60;;;13.90;92.00;;;;;;5069158;28;20226;-87
2023/07/05 04:10:08;;;;;;;17.90;13.13;;;13.90;91.90;;;;;;5069164;28;20639;-88
2023/07/05 04:12:34;;;;;;;20.30;13.90;;;13.90;91.90;;;;;;5070198;28;20180;-88
2023/07/05 04:14:59;;;;;;;24.33;13.97;;;13.90;91.90;;;;;;5068956;28;20613;-88
2023/07/05 04:17:29;;;;;;;17.80;13.50;;;13.90;92.00;;;;;;5068940;28;20177;-88
2023/07/05 04:19:54;;;;;;;24.10;13.63;;;13.90;92.00;;;;;;5068839;28;20773;-88
2023/07/05 04:22:20;;;;;;;21.37;13.83;;;13.90;92.10;;;;;;5068785;28;20221;-88
2023/07/05 04:24:45;;;;;;;20.30;13.53;;;13.90;92.20;;;;;;5068822;28;20222;-88
2023/07/05 04:27:11;;;;;;;21.23;13.17;;;13.90;92.20;;;;;;5068737;28;20176;-88
2023/07/05 04:29:37;;;;;;;17.33;14.13;;;13.80;92.20;;;;;;5069929;28;20172;-87
2023/07/05 04:32:03;;;;;;;16.37;14.10;;;13.80;92.40;;;;;;5068659;28;20182;-87
2023/07/05 04:34:28;;;;;;;20.40;14.43;;;13.80;92.50;;;;;;5068431;28;20249;-87
2023/07/05 04:36:54;;;;;;;21.73;14.30;;;13.80;92.50;;;;;;5068510;28;20180;-87
2023/07/05 04:39:20;;;;;;;21.10;13.90;;;13.80;92.60;;;;;;5068464;28;20233;-87
2023/07/05 04:41:45;;;;;;;15.93;14.00;;;13.80;92.60;;;;;;5068449;28;20172;-88
2023/07/05 04:44:11;;;;;;;25.17;14.77;;;13.80;92.60;;;;;;5068298;28;20199;-87
2023/07/05 04:46:36;;;;;;;15.87;14.20;;;13.80;92.70;;;;;;5068339;28;20176;-87
2023/07/05 04:49:02;;;;;;;18.07;13.43;;;13.80;92.60;;;;;;5069104;28;20195;-88
2023/07/05 04:51:28;;;;;;;20.10;13.67;;;13.90;92.70;;;;;;5068143;28;20183;-87
2023/07/05 04:53:53;;;;;;;22.67;20.47;;;13.90;92.70;;;;;;5068101;28;20272;-87
2023/07/05 04:56:19;;;;;;;23.30;19.77;;;13.90;92.70;;;;;;5068052;28;20203;-87
2023/07/05 04:58:48;;;;;;;22.17;19.80;;;13.90;92.70;;;;;;5068072;28;20176;-87
2023/07/05 05:01:14;;;;;;;25.57;20.17;;;13.90;92.70;;;;;;5067923;28;20182;-87
2023/07/05 05:03:40;;;;;;;22.77;20.53;;;13.90;92.70;;;;;;5068129;28;20286;-87
2023/07/05 05:06:05;;;;;;;17.07;14.17;;;13.90;92.70;;;;;;5058971;28;20184;-87
2023/07/05 05:08:31;;;;;;;17.37;14.73;;;13.90;92.70;;;;;;5054714;28;20194;-88
2023/07/05 05:10:59;;;;;;;18.77;16.03;;;13.90;92.70;;;;;;5054543;28;20183;-88
2023/07/05 05:13:26;;;;;;;19.33;15.50;;;14.00;92.70;;;;;;5054451;28;20204;-86
2023/07/05 05:15:51;;;;;;;21.47;15.73;;;13.90;92.70;;;;;;5054561;28;20275;-88
2023/07/05 05:18:17;;;;;;;20.57;14.83;;;13.90;92.60;;;;;;5054488;28;20207;-88
2023/07/05 05:20:43;;;;;;;20.80;14.90;;;14.00;92.70;;;;;;5054506;28;20387;-88
2023/07/05 05:23:09;;;;;;;20.70;16.07;;;14.00;92.80;;;;;;5054440;28;20675;-88
2023/07/05 05:25:34;;;;;;;20.40;15.10;;;14.00;92.80;;;;;;5054331;28;20183;-87
2023/07/05 05:28:01;;;;;;;21.10;15.73;;;14.00;92.80;;;;;;5055460;28;20180;-87
2023/07/05 05:30:26;;;;;;;20.13;16.03;;;14.00;92.80;;;;;;5054254;28;20173;-87
2023/07/05 05:32:52;;;;;;;23.80;17.47;;;14.10;92.90;;;;;;5054180;28;20544;-87
2023/07/05 05:35:17;;;;;;;23.80;16.20;;;14.10;92.90;;;;;;5054211;28;20317;-88
2023/07/05 05:37:43;;;;;;;30.37;16.93;;;14.10;92.90;;;;;;5055296;28;20262;-86
2023/07/05 05:40:10;;;;;;;25.57;16.33;;;14.10;93.00;;;;;;5054257;28;20183;-86
2023/07/05 05:42:36;;;;;;;19.83;16.57;;;14.10;93.00;;;;;;5054056;28;20195;-86
2023/07/05 05:45:01;;;;;;;24.63;16.70;;;14.10;93.00;;;;;;5054110;28;20180;-86
2023/07/05 05:47:27;;;;;;;18.77;15.83;;;14.20;93.10;;;;;;5054141;28;20175;-86
2023/07/05 05:49:53;;;;;;;19.97;16.27;;;14.20;93.00;;;;;;5054826;28;20176;-86
2023/07/05 05:52:18;;;;;;;24.97;16.93;;;14.20;93.00;;;;;;5054236;28;20180;-86
2023/07/05 05:54:44;;;;;;;27.83;16.73;;;14.20;93.10;;;;;;5053558;28;20211;-86
2023/07/05 05:57:09;;;;;;;18.17;16.47;;;14.20;93.10;;;;;;5053919;28;20212;-86
2023/07/05 05:59:35;;;;;;;20.35;16.85;;;14.20;93.10;;;;;;5054097;28;20196;-86
2023/07/05 06:02:00;;;;;;;24.38;17.75;;;14.30;93.10;;;;;;5054088;28;20195;-86
2023/07/05 06:04:27;;;;;;;26.07;17.90;;;14.30;93.10;;;;;;5053587;28;20294;-86
2023/07/05 06:06:53;;;;;;;24.37;17.63;;;14.30;93.00;;;;;;5054728;28;20180;-87
2023/07/05 06:09:18;;;;;;;20.27;17.53;;;14.30;92.90;;;;;;5053631;28;20283;-87
2023/07/05 06:11:44;;;;;;;22.97;17.87;;;14.30;92.90;;;;;;5055041;28;20179;-91
2023/07/05 06:14:12;;;;;;;22.30;17.95;;;14.30;92.90;;;;;;5053292;28;20204;-91
2023/07/05 06:16:38;;;;;;;21.73;16.20;;;14.30;92.80;;;;;;5053062;28;20643;-91
2023/07/05 06:19:03;;;;;;;26.30;18.83;;;14.30;92.90;;;;;;5054227;28;20182;-92
2023/07/05 06:21:29;;;;;;;22.55;18.48;;;14.20;93.00;;;;;;5054269;28;20262;-92
2023/07/05 06:23:54;;;;;;;23.53;18.17;;;14.20;93.00;;;;;;5054576;28;20301;-93
2023/07/05 06:26:20;;;;;;;24.33;18.83;;;14.30;93.30;;;;;;5055567;28;20180;-93
2023/07/05 06:28:46;;;;;;;21.60;19.37;;;14.30;93.20;;;;;;5054695;28;20613;-92
2023/07/05 06:31:12;;;;;;;21.77;19.47;;;14.30;93.30;;;;;;5055677;28;20272;-93
2023/07/05 06:33:39;;;;;;;25.70;19.57;;;14.20;93.40;;;;;;5056740;28;20366;-93
2023/07/05 06:36:06;;;;;;;23.97;19.43;;;14.20;93.50;;;;;;5056734;28;20180;-93
2023/07/05 06:38:32;;;;;;;25.57;21.73;;;14.10;93.60;;;;;;5054672;28;20557;-92
2023/07/05 06:40:57;;;;;;;28.07;20.60;;;14.20;93.80;;;;;;5053308;28;20196;-92
2023/07/05 06:43:24;;;;;;;22.83;20.50;;;14.20;93.80;;;;;;5053448;28;20223;-92
2023/07/05 06:45:51;;;;;;;29.03;21.43;;;14.20;93.90;;;;;;5053044;28;20179;-91
2023/07/05 06:48:16;;;;;;;29.40;20.00;;;14.20;94.00;;;;;;5053500;28;20168;-91
2023/07/05 06:50:42;;;;;;;24.87;21.17;;;14.20;94.00;;;;;;5053297;28;20183;-91
2023/07/05 06:53:09;;;;;;;22.40;20.00;;;14.20;94.00;;;;;;5052572;28;20703;-92
2023/07/05 06:55:38;;;;;;;23.23;20.80;;;14.30;94.10;;;;;;5052733;28;20533;-91
2023/07/05 06:58:04;;;;;;;24.13;21.60;;;14.20;94.10;;;;;;5052913;28;20253;-90
2023/07/05 07:00:29;;;;;;;26.87;21.10;;;14.30;94.30;;;;;;5054046;28;20702;-91
2023/07/05 07:02:55;;;;;;;24.87;19.87;;;14.40;94.20;;;;;;5052794;28;20757;-92
2023/07/05 07:05:21;;;;;;;22.07;19.83;;;14.40;94.20;;;;;;5052810;28;20279;-89
2023/07/05 07:07:46;;;;;;;22.73;20.27;;;14.50;94.40;;;;;;5052686;28;20270;-91
2023/07/05 07:10:12;;;;;;;22.87;20.53;;;14.50;94.20;;;;;;5052891;28;20180;-92
2023/07/05 07:12:37;;;;;;;23.17;20.10;;;14.50;94.30;;;;;;5053101;28;20680;-92
2023/07/05 07:15:03;;;;;;;23.33;20.27;;;14.60;94.30;;;;;;5054219;28;20196;-92
2023/07/05 07:17:29;;;;;;;22.85;20.02;;;14.60;94.30;;;;;;5052632;28;20202;-91
2023/07/05 07:19:54;;;;;;;22.73;20.60;;;14.70;94.30;;;;;;5052471;28;20168;-91
2023/07/05 07:22:20;;;;;;;23.65;20.48;;;14.70;94.30;;;;;;5052518;28;20202;-91
2023/07/05 07:24:46;;;;;;;22.42;20.23;;;14.70;94.30;;;;;;5052633;28;20192;-92
2023/07/05 07:27:12;;;;;;;21.75;19.35;;;14.80;94.30;;;;;;5053705;28;20252;-92
2023/07/05 07:29:38;;;;;;;19.73;17.73;;;14.80;94.30;;;;;;5052137;28;20203;-92
2023/07/05 07:32:06;;;;;;;21.80;19.60;;;14.80;94.10;;;;;;5053687;28;20207;-92
2023/07/05 07:34:32;;;;;;;20.17;18.33;;;14.80;94.10;;;;;;5052172;28;20684;-91
2023/07/05 07:36:57;;;;;;;21.13;19.05;;;14.80;94.20;;;;;;5052451;28;20191;-92
2023/07/05 07:39:23;;;;;;;20.38;18.38;;;14.90;94.20;;;;;;5053957;28;20193;-91
2023/07/05 07:41:49;;;;;;;23.20;20.05;;;15.00;94.20;;;;;;5053682;28;20182;-91
2023/07/05 07:44:18;;;;;;;26.75;24.15;;;15.10;94.20;;;;;;5053645;28;20603;-91
2023/07/05 07:46:45;;;;;;;27.38;24.67;;;15.10;94.10;;;;;;5053362;28;20175;-92
2023/07/05 07:49:11;;;;;;;27.48;24.77;;;15.10;94.10;;;;;;5053705;28;20168;-91
2023/07/05 07:51:39;;;;;;;26.77;24.58;;;15.30;94.20;;;;;;5053465;28;20698;-91
2023/07/05 07:54:08;;;;;;;27.63;25.13;;;15.30;94.20;;;;;;5053265;28;20242;-90
2023/07/05 07:56:34;;;;;;;20.73;18.63;;;15.40;94.20;;;;;;5053336;28;20168;-90
2023/07/05 07:59:00;;;;;;;20.50;18.60;;;15.50;94.30;;;;;;5052330;28;20198;-90
2023/07/05 08:01:28;;;;;;;22.42;18.95;;;15.60;94.20;;;;;;5053729;28;20199;-90
2023/07/05 08:03:55;;;;;;;22.10;18.38;;;15.50;94.20;;;;;;5053125;28;20209;-90
2023/07/05 08:06:31;;;;;;;19.98;17.85;;;15.60;94.20;;;;;;5053598;28;20277;-90
2023/07/05 08:08:57;;;;;;;18.55;16.75;;;15.70;94.10;;;;;;5053819;28;20226;-90
2023/07/05 08:11:23;;;;;;;20.35;16.80;;;15.80;94.10;;;;;;5053560;28;20172;-89
2023/07/05 08:13:49;;;;;;;20.00;17.65;;;15.80;94.10;;;;;;5051933;28;20207;-90
2023/07/05 08:16:15;;;;;;;19.13;16.45;;;15.80;93.90;;;;;;5053204;28;20199;-90
2023/07/05 08:18:42;;;;;;;17.83;15.95;;;15.80;93.80;;;;;;5053547;28;20168;-91
2023/07/05 08:21:08;;;;;;;17.35;15.55;;;15.70;93.70;;;;;;5052033;28;20203;-91
2023/07/05 08:23:33;;;;;;;16.83;15.13;;;15.80;93.70;;;;;;5052977;28;20219;-90
2023/07/05 08:26:01;;;;;;;19.80;15.68;;;15.80;93.70;;;;;;5051952;28;20203;-90
2023/07/05 08:28:27;;;;;;;17.20;15.70;;;15.80;93.70;;;;;;5053184;28;20666;-91
2023/07/05 08:30:55;;;;;;;18.08;16.17;;;16.00;93.70;;;;;;5053275;28;20181;-90
2023/07/05 08:33:24;;;;;;;16.80;15.07;;;16.20;93.70;;;;;;5053154;28;20675;-90
2023/07/05 08:36:02;;;;;;;16.63;14.27;;;16.50;93.70;;;;;;5053287;28;20176;-90
2023/07/05 08:38:27;;;;;;;16.38;14.77;;;16.70;93.60;;;;;;5053115;28;20210;-90
2023/07/05 08:40:58;;;;;;;15.30;13.93;;;16.70;92.80;;;;;;5054394;28;20176;-90
2023/07/05 08:43:37;;;;;;;14.55;13.25;;;16.70;92.70;;;;;;5056772;28;20195;-90
2023/07/05 08:46:08;;;;;;;14.60;13.15;;;17.00;92.70;;;;;;5056843;28;20152;-89
2023/07/05 08:48:35;;;;;;;15.95;14.35;;;17.00;92.40;;;;;;5056606;28;20192;-90
2023/07/05 08:51:01;;;;;;;14.65;13.27;;;17.00;92.10;;;;;;5056720;28;20176;-91
2023/07/05 08:53:28;;;;;;;15.52;14.13;;;17.30;91.70;;;;;;5055453;28;20242;-90
2023/07/05 08:55:59;;;;;;;14.35;12.95;;;17.30;90.70;;;;;;5055331;28;20183;-90
2023/07/05 08:59:19;;;;;;;13.43;12.07;;;17.40;89.00;;;;;;5055009;28;20258;-89
2023/07/05 09:01:45;;;;;;;19.83;18.25;;;17.30;88.90;;;;;;5034330;28;20653;-89
2023/07/05 09:04:26;;;;;;;17.58;16.33;;;16.80;80.30;;;;;;5054433;28;20204;-89
2023/07/05 09:07:09;;;;;;;16.00;14.70;;;16.60;80.40;;;;;;5055481;28;20168;-90
2023/07/05 09:09:50;;;;;;;14.57;13.30;;;16.50;81.50;;;;;;5056167;28;20176;-89
2023/07/05 09:12:20;;;;;;;14.43;13.38;;;16.30;81.90;;;;;;5055137;28;20168;-89
2023/07/05 09:15:09;;;;;;;15.68;14.48;;;16.20;81.90;;;;;;5054862;28;20239;-89
2023/07/05 09:17:43;;;;;;;13.68;12.48;;;16.20;82.10;;;;;;5055105;28;20160;-90
2023/07/05 09:20:31;;;;;;;13.95;12.85;;;16.70;82.80;;;;;;5054785;28;20539;-89
2023/07/05 09:23:01;;;;;;;14.55;13.48;;;17.20;80.80;;;;;;5056043;28;20188;-89
2023/07/05 09:25:30;;;;;;;15.98;14.63;;;17.50;80.10;;;;;;5054729;28;20176;-90
2023/07/05 09:28:06;;;;;;;16.30;15.00;;;17.60;77.60;;;;;;5054613;28;20233;-89
2023/07/05 09:30:33;;;;;;;15.65;14.50;;;17.70;77.80;;;;;;5054457;28;20167;-89
2023/07/05 09:33:11;;;;;;;16.83;15.73;;;17.90;77.00;;;;;;5054610;28;20204;-88
2023/07/05 09:35:39;;;;;;;17.08;15.90;;;18.00;76.50;;;;;;5055479;28;20215;-89
2023/07/05 09:38:15;;;;;;;17.52;16.25;;;17.90;73.60;;;;;;5054625;28;20210;-89
2023/07/05 09:40:46;;;;;;;17.30;15.60;;;17.80;73.00;;;;;;5055896;28;20538;-87
2023/07/05 09:43:29;;;;;;;17.02;15.52;;;18.00;72.30;;;;;;5054211;28;20613;-88
2023/07/05 09:45:55;;;;;;;16.77;15.48;;;17.80;73.10;;;;;;5055465;28;20562;-88
2023/07/05 09:48:20;;;;;;;17.10;15.93;;;18.00;72.60;;;;;;5054080;28;20275;-89
2023/07/05 09:50:52;;;;;;;18.70;17.02;;;18.10;71.00;;;;;;5053988;28;20218;-89
2023/07/05 09:53:41;;;;;;;16.33;15.23;;;17.90;70.20;;;;;;5054978;28;20729;-87
2023/07/05 09:56:11;;;;;;;16.60;15.50;;;17.40;71.70;;;;;;5054217;28;20251;-89
2023/07/05 09:58:38;;;;;;;16.63;15.23;;;17.20;72.20;;;;;;5055200;28;20168;-89
2023/07/05 10:01:09;;;;;;;16.88;15.57;;;17.10;72.70;;;;;;5054000;28;20233;-89
2023/07/05 10:03:37;;;;;;;16.13;15.02;;;17.60;71.40;;;;;;5053847;28;20188;-88
2023/07/05 10:06:08;;;;;;;15.98;14.63;;;17.80;72.00;;;;;;5053687;28;20658;-90
2023/07/05 10:08:45;;;;;;;16.27;15.00;;;18.00;72.70;;;;;;5053649;28;20168;-90
2023/07/05 10:11:27;;;;;;;17.15;15.68;;;18.20;70.60;;;;;;5053749;28;20220;-89
2023/07/05 10:14:12;;;;;;;17.20;16.10;;;18.00;70.30;;;;;;5054815;28;20212;-89
2023/07/05 10:17:02;;;;;;;18.65;17.25;;;18.00;67.80;;;;;;5053560;28;20191;-88
2023/07/05 10:19:37;;;;;;;17.95;16.65;;;17.90;66.50;;;;;;5054722;28;20161;-89
2023/07/05 10:22:13;;;;;;;17.00;15.70;;;17.70;67.10;;;;;;5054550;28;20167;-89
2023/07/05 10:24:50;;;;;;;19.23;17.70;;;17.70;68.30;;;;;;5053418;28;20195;-87
2023/07/05 10:27:31;;;;;;;16.88;15.70;;;17.70;66.70;;;;;;5054563;28;20167;-87
2023/07/05 10:30:15;;;;;;;16.42;15.32;;;17.60;67.00;;;;;;5054433;28;20670;-87
2023/07/05 10:33:06;;;;;;;16.48;15.23;;;17.30;68.30;;;;;;5053507;28;20203;-87
2023/07/05 10:35:33;;;;;;;16.00;14.90;;;17.20;68.30;;;;;;5053966;28;20291;-86
2023/07/05 10:37:59;;;;;;;22.17;16.38;;;17.40;69.50;;;;;;5053005;28;20176;-86
2023/07/05 10:40:25;;;;;;;17.42;16.00;;;18.00;67.10;;;;;;5053070;28;20176;-87
2023/07/05 10:42:53;;;;;;;16.70;15.50;;;18.40;67.10;;;;;;5054057;28;20194;-87
2023/07/05 10:45:20;;;;;;;16.63;15.40;;;18.70;66.70;;;;;;5052871;28;20176;-87
2023/07/05 10:47:51;;;;;;;16.17;15.00;;;18.20;65.30;;;;;;5052757;28;20234;-87
2023/07/05 10:50:26;;;;;;;15.88;14.85;;;17.90;67.10;;;;;;5052828;28;20187;-87
2023/07/05 10:53:01;;;;;;;19.58;15.13;;;17.70;67.50;;;;;;5052553;28;20238;-86
2023/07/05 10:55:50;;;;;;;16.60;15.18;;;17.50;68.60;;;;;;5052795;28;20207;-86
2023/07/05 10:58:18;;;;;;;17.80;14.32;;;17.50;67.60;;;;;;5052662;28;20233;-86
2023/07/05 11:01:19;;;;;;;17.35;15.68;;;17.40;69.30;;;;;;5052568;28;20176;-87
2023/07/05 11:03:56;;;;;;;16.45;15.00;;;17.40;66.10;;;;;;5030785;28;20207;-86
2023/07/05 11:06:24;;;;;;;17.75;16.40;;;17.80;66.40;;;;;;5053844;28;20151;-87
2023/07/05 11:08:50;;;;;;;18.15;16.50;;;18.40;65.30;;;;;;5052366;28;20176;-87
2023/07/05 11:11:20;;;;;;;18.30;17.00;;;18.70;66.00;;;;;;5052337;28;20647;-87
2023/07/05 11:13:47;;;;;;;19.60;16.17;;;18.50;64.00;;;;;;5052416;28;20196;-87
2023/07/05 11:16:26;;;;;;;17.83;16.63;;;18.50;63.70;;;;;;5053484;28;20198;-88
2023/07/05 11:19:00;;;;;;;17.67;16.48;;;18.20;63.70;;;;;;5052706;28;20175;-87
2023/07/05 11:21:52;;;;;;;30.02;15.70;;;18.20;64.70;;;;;;5053701;28;20168;-87
2023/07/05 11:24:36;;;;;;;15.90;14.70;;;18.10;65.80;;;;;;5052336;28;20208;-87
2023/07/05 11:27:24;;;;;;;16.23;15.13;;;18.10;66.80;;;;;;5052276;28;20180;-86
2023/07/05 11:29:54;;;;;;;16.20;15.07;;;17.70;64.80;;;;;;5052183;28;20176;-86
2023/07/05 11:32:22;;;;;;;15.57;14.52;;;17.40;65.90;;;;;;5053232;28;20184;-86
2023/07/05 11:34:51;;;;;;;16.58;15.13;;;17.30;66.30;;;;;;5051973;28;20211;-86
2023/07/05 11:37:17;;;;;;;15.13;13.82;;;17.20;66.90;;;;;;5053188;28;20167;-86
2023/07/05 11:39:50;;;;;;;15.55;13.57;;;17.00;68.00;;;;;;5052100;28;20172;-87
2023/07/05 11:42:15;;;;;;;15.35;14.25;;;17.00;67.00;;;;;;5051894;28;20555;-86
2023/07/05 11:44:48;;;;;;;16.58;15.30;;;16.90;68.10;;;;;;5052366;28;20299;-86
2023/07/05 11:47:38;;;;;;;16.40;15.30;;;16.90;67.40;;;;;;5051853;28;20206;-86
2023/07/05 11:50:14;;;;;;;17.95;16.05;;;17.00;66.20;;;;;;5053518;28;20254;-87
2023/07/05 11:53:00;;;;;;;17.02;15.73;;;17.10;65.50;;;;;;5051751;28;20171;-87
2023/07/05 11:55:33;;;;;;;15.70;14.60;;;17.10;67.00;;;;;;5052070;28;20203;-86
2023/07/05 11:58:22;;;;;;;16.80;15.40;;;17.10;67.20;;;;;;5052303;28;20164;-86
2023/07/05 12:00:50;;;;;;;16.25;15.10;;;17.00;66.90;;;;;;5053271;28;20203;-86
2023/07/05 12:03:24;;;;;;;17.92;16.00;;;16.90;67.00;;;;;;5054732;28;20188;-86
2023/07/05 12:06:02;;;;;;;20.35;18.80;;;16.80;67.00;;;;;;5053631;28;20175;-86
2023/07/05 12:08:49;;;;;;;15.85;14.85;;;16.70;66.30;;;;;;5051897;28;20168;-86
2023/07/05 12:11:33;;;;;;;17.17;14.90;;;16.70;66.20;;;;;;5051767;28;20168;-86
2023/07/05 12:14:01;;;;;;;16.48;15.38;;;16.70;67.00;;;;;;5051571;28;20210;-86
2023/07/05 12:16:28;;;;;;;15.55;14.40;;;16.60;66.90;;;;;;5055236;28;20251;-86
2023/07/05 12:18:54;;;;;;;16.73;15.32;;;16.80;67.00;;;;;;5056889;28;20540;-86
2023/07/05 12:21:20;;;;;;;15.93;14.73;;;16.90;67.20;;;;;;5056861;28;20255;-86
2023/07/05 12:23:49;;;;;;;15.05;13.93;;;16.80;66.50;;;;;;5056832;28;20226;-86
2023/07/05 12:26:35;;;;;;;14.25;13.18;;;16.70;68.00;;;;;;5056770;28;20172;-86
2023/07/05 12:29:13;;;;;;;15.40;14.38;;;17.00;69.70;;;;;;5056459;28;20195;-86
2023/07/05 12:31:39;;;;;;;15.55;14.20;;;17.00;66.90;;;;;;5055537;28;20176;-86
2023/07/05 12:34:04;;;;;;;14.88;13.85;;;16.80;67.70;;;;;;5056466;28;20203;-86
2023/07/05 12:36:40;;;;;;;14.35;13.00;;;16.70;68.70;;;;;;5055346;28;20679;-86
2023/07/05 12:39:09;;;;;;;13.40;12.15;;;16.60;71.60;;;;;;5055303;28;20171;-87
2023/07/05 12:41:35;;;;;;;14.80;13.40;;;16.70;72.90;;;;;;5055136;28;20179;-86